Time;durP1;ratioP1;P1;durP2;ratioP2;P2;SDS_P1;SDS_P2;PMS_P1;PMS_P2;Temp;Humidity;BMP_temperature;BMP_pressure;BME280_temperature;BME280_humidity;BME280_pressure;Samples;Min_cycle;Max_cycle;Signal;HPM_P1;HPM_P2
2022/12/27 00:01:31;;;;;;;5.90;2.17;;;;;;;3.43;66.83;100651.23;1762184;80;21086;-69
2022/12/27 00:03:57;;;;;;;5.28;2.00;;;;;;;3.49;66.80;100649.63;1767415;80;21023;-66
2022/12/27 00:06:25;;;;;;;5.37;2.15;;;;;;;3.54;66.68;100637.23;1766681;80;21257;-66
2022/12/27 00:08:53;;;;;;;7.40;4.28;;;;;;;3.60;66.74;100634.83;1762763;80;21660;-67
2022/12/27 00:11:23;;;;;;;5.67;1.90;;;;;;;3.61;66.75;100631.76;1765839;80;21237;-69
2022/12/27 00:13:49;;;;;;;6.70;3.52;;;;;;;3.60;66.80;100637.87;1767447;80;21031;-67
2022/12/27 00:16:19;;;;;;;5.87;2.08;;;;;;;3.56;66.83;100644.98;1764910;79;21309;-66
2022/12/27 00:18:47;;;;;;;6.70;3.52;;;;;;;3.54;66.81;100647.64;1763858;79;21150;-66
2022/12/27 00:21:14;;;;;;;5.25;1.60;;;;;;;3.50;66.73;100654.39;1755735;80;21060;-65
2022/12/27 00:23:45;;;;;;;5.85;1.90;;;;;;;3.46;66.86;100652.39;1703165;82;21381;-66
2022/12/27 00:26:17;;;;;;;6.55;2.25;;;;;;;3.44;66.91;100642.95;1765852;80;20996;-67
2022/12/27 00:28:43;;;;;;;4.78;1.98;;;;;;;3.39;67.05;100638.42;1775601;80;21634;-67
2022/12/27 00:31:10;;;;;;;4.33;1.67;;;;;;;3.41;66.95;100630.91;1780914;80;21771;-67
2022/12/27 00:33:38;;;;;;;3.80;1.50;;;;;;;3.48;66.89;100630.17;1775866;80;21034;-67
2022/12/27 00:36:07;;;;;;;8.15;4.40;;;;;;;3.56;66.89;100631.13;1768006;80;21081;-67
2022/12/27 00:38:34;;;;;;;5.78;1.77;;;;;;;3.60;66.95;100630.06;1775312;80;21018;-66
2022/12/27 00:41:02;;;;;;;6.72;2.00;;;;;;;3.63;67.09;100622.98;1780495;80;21110;-67
2022/12/27 00:43:29;;;;;;;7.20;4.12;;;;;;;3.64;67.09;100607.73;1778150;79;21805;-67
2022/12/27 00:45:56;;;;;;;5.05;2.05;;;;;;;3.61;67.04;100602.67;1760765;80;21523;-67
2022/12/27 00:48:22;;;;;;;5.65;2.65;;;;;;;3.60;67.11;100601.00;1767840;80;21084;-66
2022/12/27 00:50:49;;;;;;;5.30;1.87;;;;;;;3.58;67.18;100592.87;1758088;80;21023;-66
2022/12/27 00:53:17;;;;;;;6.45;2.92;;;;;;;3.56;67.25;100598.14;1758479;79;21108;-66
2022/12/27 00:55:43;;;;;;;7.70;4.60;;;;;;;3.51;67.28;100589.27;1762946;80;21759;-66
2022/12/27 00:58:10;;;;;;;6.03;2.30;;;;;;;3.47;67.38;100584.28;1759848;80;21154;-66
2022/12/27 01:00:37;;;;;;;8.60;4.33;;;;;;;3.50;67.38;100590.64;1763645;80;21082;-66
2022/12/27 01:03:03;;;;;;;6.92;3.67;;;;;;;3.54;67.34;100587.80;1760127;80;21073;-66
2022/12/27 01:05:30;;;;;;;4.15;1.75;;;;;;;3.58;67.38;100582.02;1761764;80;21043;-67
2022/12/27 01:07:57;;;;;;;8.15;4.58;;;;;;;3.62;67.48;100587.45;1757622;79;21929;-66
2022/12/27 01:10:24;;;;;;;5.92;2.42;;;;;;;3.63;67.66;100588.28;1762285;80;21548;-66
2022/12/27 01:12:51;;;;;;;6.05;2.42;;;;;;;3.62;67.69;100580.11;1760784;80;21610;-66
2022/12/27 01:15:17;;;;;;;6.12;2.12;;;;;;;3.57;67.77;100584.70;1766887;79;21384;-66
2022/12/27 01:17:44;;;;;;;7.42;2.35;;;;;;;3.50;67.93;100578.94;1758419;80;21483;-66
2022/12/27 01:20:11;;;;;;;8.55;5.22;;;;;;;3.46;67.99;100574.34;1763531;80;21080;-67
2022/12/27 01:22:37;;;;;;;5.78;2.27;;;;;;;3.40;68.19;100570.72;1723748;82;21531;-67
2022/12/27 01:25:06;;;;;;;10.63;3.27;;;;;;;3.41;68.19;100567.19;1767273;80;21068;-67
2022/12/27 01:27:32;;;;;;;9.15;5.30;;;;;;;3.44;68.22;100570.95;1758196;80;21098;-67
2022/12/27 01:29:59;;;;;;;10.28;5.70;;;;;;;3.47;68.25;100566.91;1766115;80;21023;-66
2022/12/27 01:32:27;;;;;;;7.42;2.45;;;;;;;3.50;68.39;100560.26;1771953;80;21067;-67
2022/12/27 01:34:54;;;;;;;7.60;3.27;;;;;;;3.50;68.55;100558.95;1771310;80;21153;-67
2022/12/27 01:37:21;;;;;;;10.30;6.17;;;;;;;3.47;68.74;100554.36;1768925;80;21090;-67
2022/12/27 01:39:48;;;;;;;7.15;2.47;;;;;;;3.45;68.91;100556.20;1776496;80;21040;-67
2022/12/27 01:45:01;;;;;;;8.33;3.60;;;;;;;3.42;69.00;100535.06;1769771;80;21441;-66
2022/12/27 01:47:48;;;;;;;6.90;3.77;;;;;;;3.38;69.20;100528.34;1776545;80;21090;-68
2022/12/27 01:50:29;;;;;;;9.78;3.85;;;;;;;3.35;69.32;100525.41;1774153;80;21063;-66
2022/12/27 01:53:06;;;;;;;6.87;3.37;;;;;;;3.35;69.38;100514.17;1765496;80;21066;-66
2022/12/27 01:55:47;;;;;;;6.33;2.80;;;;;;;3.43;69.28;100505.98;1761777;80;21497;-68
2022/12/27 01:58:28;;;;;;;8.93;4.10;;;;;;;3.49;69.28;100506.53;1773321;80;21151;-68
2022/12/27 02:00:55;;;;;;;10.82;6.75;;;;;;;3.56;69.23;100490.16;1762213;79;21039;-68
2022/12/27 02:03:35;;;;;;;7.20;3.60;;;;;;;3.59;69.34;100483.52;1734472;82;21092;-68
2022/12/27 02:06:04;;;;;;;10.93;6.83;;;;;;;3.59;69.37;100478.30;1764318;80;21030;-68
2022/12/27 02:08:51;;;;;;;8.75;2.85;;;;;;;3.58;69.46;100477.08;1754778;80;21055;-68
2022/12/27 02:11:49;;;;;;;9.63;3.33;;;;;;;3.56;69.44;100475.02;1757676;80;21185;-66
2022/12/27 02:13:49;;;;;;;10.60;6.65;;;;;;;3.48;69.58;100472.34;1754816;80;21039;-67
2022/12/27 02:16:18;;;;;;;7.60;3.58;;;;;;;3.45;69.81;100472.48;1758258;79;21075;-66
2022/12/27 02:18:46;;;;;;;9.40;2.50;;;;;;;3.49;69.75;100476.61;1759833;80;21470;-65
2022/12/27 02:21:27;;;;;;;7.28;3.47;;;;;;;3.57;69.63;100471.04;1761409;80;21018;-66
2022/12/27 02:24:05;;;;;;;8.75;3.02;;;;;;;3.65;69.55;100470.20;1761892;80;21327;-67
2022/12/27 02:26:51;;;;;;;7.58;3.10;;;;;;;3.72;69.50;100472.88;1764685;80;21129;-67
2022/12/27 02:29:23;;;;;;;8.70;3.17;;;;;;;3.77;69.48;100463.55;1758298;80;21040;-67
2022/12/27 02:31:58;;;;;;;7.58;3.42;;;;;;;3.80;69.67;100467.30;1760961;80;21137;-68
2022/12/27 02:34:28;;;;;;;;;;;;;;;3.82;69.64;100461.55;1763164;80;21062;-67
2022/12/27 02:36:58;;;;;;;6.53;3.22;;;;;;;3.81;69.52;100461.16;1759089;80;21151;-68
2022/12/27 02:39:25;;;;;;;6.53;2.75;;;;;;;3.76;69.51;100447.53;1756254;80;21109;-67
2022/12/27 02:53:21;;;;;;;8.30;3.87;;;;;;;3.67;69.80;100416.78;1766389;80;21054;-67
2022/12/27 02:59:30;;;;;;;11.30;7.17;;;;;;;3.79;69.59;100414.02;1760566;80;21721;-68
2022/12/27 03:05:11;;;;;;;6.03;2.70;;;;;;;3.95;69.70;100411.45;1758996;80;21523;-66
2022/12/27 03:07:49;;;;;;;6.72;3.22;;;;;;;3.94;69.80;100410.61;1766705;80;21011;-66
2022/12/27 03:16:42;;;;;;;7.75;3.62;;;;;;;3.85;69.93;100388.95;1716808;82;21051;-67
2022/12/27 03:33:11;;;;;;;7.87;3.92;;;;;;;3.67;70.26;100380.35;1750817;79;21046;-68
2022/12/27 03:33:14;;;;;;;6.55;2.98;;;;;;;3.79;70.13;100378.41;1749261;80;22258;-67
2022/12/27 03:38:54;;;;;;;10.43;6.80;;;;;;;3.93;70.21;100367.73;1754910;79;21009;-69
2022/12/27 03:44:25;;;;;;;9.28;4.37;;;;;;;3.88;70.35;100370.14;1756694;80;21510;-67
2022/12/27 03:47:25;;;;;;;9.18;3.67;;;;;;;3.84;70.38;100362.55;1747305;79;21248;-67
2022/12/27 03:50:05;;;;;;;8.83;4.12;;;;;;;3.77;70.46;100358.60;1713248;82;21136;-66
2022/12/27 03:52:52;;;;;;;7.90;3.67;;;;;;;3.65;70.68;100354.88;1753918;80;21059;-67
2022/12/27 03:55:20;;;;;;;8.50;3.33;;;;;;;3.62;70.87;100348.52;1760387;79;21295;-67
2022/12/27 03:57:47;;;;;;;6.10;2.80;;;;;;;3.67;70.85;100360.36;1744383;80;21031;-67
2022/12/27 04:00:14;;;;;;;8.30;3.02;;;;;;;3.71;70.86;100354.54;1757665;80;21264;-67
2022/12/27 04:02:40;;;;;;;14.15;3.10;;;;;;;3.72;70.92;100350.55;1755336;80;21038;-67
2022/12/27 04:05:08;;;;;;;7.95;3.95;;;;;;;3.73;71.16;100343.58;1749723;80;21122;-67
2022/12/27 04:07:35;;;;;;;8.55;4.05;;;;;;;3.72;71.25;100344.05;1756006;80;21027;-67
2022/12/27 04:34:51;;;;;;;8.93;3.58;;;;;;;3.90;71.44;100295.39;1756484;80;20983;-67
2022/12/27 04:37:18;;;;;;;6.87;3.17;;;;;;;3.88;71.47;100285.97;1753785;80;21556;-67
2022/12/27 04:55:19;;;;;;;10.48;7.10;;;;;;;3.95;71.76;100287.78;1862637;75;21002;-68
2022/12/27 04:57:46;;;;;;;7.17;3.00;;;;;;;3.97;71.76;100287.23;1862148;75;21729;-67
2022/12/27 05:03:01;;;;;;;6.87;3.25;;;;;;;3.96;71.81;100295.98;1872564;75;21061;-67
2022/12/27 05:05:27;;;;;;;8.98;3.27;;;;;;;3.97;71.82;100281.59;1874249;75;22309;-68
2022/12/27 05:16:11;;;;;;;8.20;3.37;;;;;;;4.25;71.65;100259.22;1868664;75;20972;-68
2022/12/27 05:18:37;;;;;;;9.15;6.00;;;;;;;4.34;71.58;100265.68;1875486;75;21059;-68
2022/12/27 05:21:05;;;;;;;13.08;8.93;;;;;;;4.36;71.57;100271.19;1867837;75;21413;-68
2022/12/27 05:26:27;;;;;;;11.80;8.58;;;;;;;4.35;71.58;100270.80;1868439;75;20967;-68
2022/12/27 05:28:56;;;;;;;13.50;9.10;;;;;;;4.34;71.59;100274.80;1870651;75;21511;-69
2022/12/27 05:31:26;;;;;;;10.98;4.40;;;;;;;4.36;71.53;100285.52;1862562;75;20972;-68
2022/12/27 05:33:53;;;;;;;9.73;5.22;;;;;;;4.44;71.31;100278.59;1866048;75;20963;-68
2022/12/27 05:36:19;;;;;;;7.83;3.55;;;;;;;4.49;71.21;100270.49;1869007;75;21204;-68
2022/12/27 05:38:46;;;;;;;9.10;4.30;;;;;;;4.54;71.21;100262.81;1868508;75;21035;-67
2022/12/27 05:41:13;;;;;;;14.40;8.80;;;;;;;4.57;71.27;100276.97;1874189;75;21038;-68
2022/12/27 05:43:39;;;;;;;13.20;8.93;;;;;;;4.59;71.37;100273.81;1866037;75;21007;-68
2022/12/27 05:46:17;;;;;;;7.28;3.70;;;;;;;4.63;71.33;100275.78;1877463;75;21077;-69
2022/12/27 05:48:43;;;;;;;10.32;3.95;;;;;;;4.64;71.24;100277.00;1872414;75;21171;-68
2022/12/27 05:51:14;;;;;;;14.47;9.88;;;;;;;4.64;71.21;100287.89;1866621;75;21064;-68
2022/12/27 05:53:41;;;;;;;9.00;4.72;;;;;;;4.59;71.10;100280.77;1859530;75;21058;-68
2022/12/27 05:56:16;;;;;;;9.48;4.72;;;;;;;4.59;71.06;100285.98;1863771;75;21515;-69
2022/12/27 05:58:42;;;;;;;10.25;5.53;;;;;;;4.67;70.99;100278.57;1871136;75;21023;-68
2022/12/27 06:01:13;;;;;;;10.58;4.95;;;;;;;4.71;70.97;100277.48;1802110;77;21199;-68
2022/12/27 06:03:39;;;;;;;14.75;10.18;;;;;;;4.76;70.97;100274.63;1866046;75;21038;-68
2022/12/27 06:06:07;;;;;;;14.75;10.35;;;;;;;4.78;71.00;100274.06;1860517;76;21415;-68
2022/12/27 06:08:34;;;;;;;11.08;4.97;;;;;;;4.75;71.19;100269.02;1866107;76;21168;-68
2022/12/27 06:11:09;;;;;;;11.85;5.75;;;;;;;4.72;71.30;100269.19;1858617;76;20996;-68
2022/12/27 06:13:37;;;;;;;10.28;5.37;;;;;;;4.69;71.49;100262.41;1865171;75;21086;-68
2022/12/27 06:16:04;;;;;;;15.65;11.28;;;;;;;4.64;71.55;100265.27;1859086;75;20991;-69
2022/12/27 06:18:33;;;;;;;12.25;5.80;;;;;;;4.62;71.67;100264.52;1865258;76;21070;-69
2022/12/27 06:21:03;;;;;;;17.37;12.03;;;;;;;4.62;71.69;100259.31;1861013;76;21003;-68
2022/12/27 06:26:29;;;;;;;15.72;11.85;;;;;;;4.70;71.94;100262.76;1831346;75;22476;-68
2022/12/27 06:28:56;;;;;;;15.90;11.60;;;;;;;4.77;71.75;100255.42;1775827;79;21069;-68
2022/12/27 06:31:25;;;;;;;10.55;5.75;;;;;;;4.78;71.83;100257.13;1789207;78;20936;-69
2022/12/27 06:33:52;;;;;;;12.35;6.10;;;;;;;4.79;72.00;100259.64;1800242;79;20936;-68
2022/12/27 06:36:22;;;;;;;20.95;12.85;;;;;;;4.81;72.09;100256.95;1733745;80;20944;-68
2022/12/27 06:38:49;;;;;;;12.15;5.97;;;;;;;4.79;72.14;100260.94;1738734;79;21037;-68
2022/12/27 06:41:17;;;;;;;16.52;6.15;;;;;;;4.83;72.01;100264.20;1772623;77;21014;-68
2022/12/27 06:43:44;;;;;;;9.75;5.53;;;;;;;4.90;71.87;100264.69;1791515;77;21160;-69
2022/12/27 06:46:12;;;;;;;17.77;12.30;;;;;;;4.94;71.80;100267.48;1791517;77;21085;-69
2022/12/27 06:48:39;;;;;;;17.40;13.15;;;;;;;4.99;71.85;100263.70;1793190;79;21039;-69
2022/12/27 06:51:08;;;;;;;11.15;6.72;;;;;;;5.02;71.89;100260.87;1802126;77;21044;-69
2022/12/27 06:53:35;;;;;;;20.00;14.13;;;;;;;5.03;72.16;100259.96;1806296;78;21083;-70
2022/12/27 06:56:05;;;;;;;14.90;6.97;;;;;;;5.06;72.21;100259.41;1797827;77;22257;-68
2022/12/27 06:58:32;;;;;;;23.20;15.48;;;;;;;5.05;72.27;100253.36;1780365;77;22037;-70
2022/12/27 07:01:11;;;;;;;11.90;6.22;;;;;;;5.01;72.27;100259.22;1785261;77;21935;-70
2022/12/27 07:03:38;;;;;;;11.57;6.35;;;;;;;5.00;72.37;100253.62;1793149;79;21701;-68
2022/12/27 07:06:06;;;;;;;19.07;13.43;;;;;;;5.05;72.27;100260.34;1791969;79;21015;-66
2022/12/27 07:08:34;;;;;;;23.00;15.05;;;;;;;5.07;72.28;100260.61;1758986;80;21251;-69
2022/12/27 07:11:05;;;;;;;12.93;7.37;;;;;;;5.07;72.39;100263.22;1732373;80;21081;-70
2022/12/27 07:13:35;;;;;;;21.42;14.38;;;;;;;5.04;72.55;100266.01;1727168;80;21013;-69
2022/12/27 07:16:06;;;;;;;23.52;15.83;;;;;;;4.98;72.74;100263.31;1730850;80;21037;-69
2022/12/27 07:18:33;;;;;;;13.48;8.25;;;;;;;4.92;72.95;100249.31;1776960;79;20993;-68
2022/12/27 07:21:05;;;;;;;11.78;6.58;;;;;;;4.92;73.09;100238.88;1789045;77;21229;-69
2022/12/27 07:23:33;;;;;;;23.38;15.35;;;;;;;5.00;73.18;100240.58;1792702;78;21011;-69
2022/12/27 07:26:06;;;;;;;20.00;14.53;;;;;;;5.11;73.12;100229.97;1800557;77;21047;-69
2022/12/27 07:28:33;;;;;;;18.60;14.58;;;;;;;5.19;73.20;100229.91;1796425;78;21050;-67
2022/12/27 07:31:06;;;;;;;26.45;16.10;;;;;;;5.25;73.17;100233.08;1735211;80;21097;-69
2022/12/27 07:33:34;;;;;;;17.98;8.75;;;;;;;5.23;73.18;100233.61;1771448;79;21133;-69
2022/12/27 07:36:01;;;;;;;21.00;14.93;;;;;;;5.24;73.32;100230.09;1790833;77;20995;-70
2022/12/27 07:38:27;;;;;;;19.95;14.85;;;;;;;5.23;73.34;100238.39;1778843;78;21068;-69
2022/12/27 07:40:56;;;;;;;22.15;15.78;;;;;;;5.27;73.22;100231.21;1781806;77;21051;-69
2022/12/27 07:43:22;;;;;;;22.58;15.45;;;;;;;5.33;73.14;100225.60;1732906;80;21127;-72
2022/12/27 07:45:49;;;;;;;26.20;15.95;;;;;;;5.42;73.11;100226.84;1778934;77;21129;-68
2022/12/27 07:48:15;;;;;;;21.75;16.30;;;;;;;5.48;73.14;100233.83;1796126;78;21035;-68
2022/12/27 07:50:42;;;;;;;24.52;17.10;;;;;;;5.50;73.33;100235.04;1800029;77;21035;-69
2022/12/27 07:53:08;;;;;;;23.98;16.77;;;;;;;5.51;73.30;100238.00;1795621;77;21026;-68
2022/12/27 07:55:35;;;;;;;20.52;14.95;;;;;;;5.53;73.41;100241.35;1796253;77;21704;-68
2022/12/27 07:58:01;;;;;;;15.63;7.15;;;;;;;5.59;73.37;100238.38;1795332;77;21791;-69
2022/12/27 08:00:28;;;;;;;21.50;15.32;;;;;;;5.67;73.09;100243.14;1732365;80;21126;-68
2022/12/27 08:02:55;;;;;;;22.60;16.17;;;;;;;5.73;73.05;100238.82;1718738;81;21028;-66
2022/12/27 08:05:22;;;;;;;24.25;17.15;;;;;;;5.78;73.00;100241.98;1793979;77;21054;-65
2022/12/27 08:07:48;;;;;;;24.70;16.80;;;;;;;5.79;73.01;100231.92;1798718;79;21328;-64
2022/12/27 08:10:15;;;;;;;27.87;18.60;;;;;;;5.76;72.95;100236.85;1735243;80;21579;-66
2022/12/27 08:12:42;;;;;;;16.62;7.83;;;;;;;5.72;73.14;100237.98;1726996;82;21038;-65
2022/12/27 08:15:10;;;;;;;27.48;16.57;;;;;;;5.72;73.12;100235.38;1759793;80;21041;-64
2022/12/27 08:17:37;;;;;;;15.35;7.80;;;;;;;5.75;73.00;100239.11;1733845;80;21110;-65
2022/12/27 08:20:05;;;;;;;27.55;17.92;;;;;;;5.80;73.02;100234.05;1721434;80;21059;-64
2022/12/27 08:22:31;;;;;;;23.42;17.23;;;;;;;5.82;73.11;100236.13;1745543;81;21195;-64
2022/12/27 08:24:58;;;;;;;26.57;17.37;;;;;;;5.83;73.42;100241.22;1760808;80;21216;-65
2022/12/27 08:27:24;;;;;;;21.00;9.63;;;;;;;5.86;73.59;100236.30;1769300;79;21070;-68
2022/12/27 08:29:51;;;;;;;24.18;17.55;;;;;;;5.88;73.65;100233.11;1767556;80;21037;-70
2022/12/27 08:32:17;;;;;;;28.75;18.17;;;;;;;5.91;73.75;100235.53;1763673;79;21062;-67
2022/12/27 08:34:44;;;;;;;15.58;8.53;;;;;;;5.95;73.66;100231.78;1756592;79;21280;-66
2022/12/27 08:37:11;;;;;;;26.40;18.65;;;;;;;6.02;73.36;100217.89;1760245;80;21042;-68
2022/12/27 08:39:37;;;;;;;15.58;8.85;;;;;;;6.09;73.31;100219.20;1755690;79;21046;-68
2022/12/27 08:42:04;;;;;;;26.07;17.95;;;;;;;6.14;73.16;100214.52;1776915;80;21062;-69
2022/12/27 08:44:30;;;;;;;26.37;18.90;;;;;;;6.18;73.19;100217.30;1747159;80;20998;-70
2022/12/27 08:46:58;;;;;;;27.13;18.50;;;;;;;6.20;73.28;100214.58;1758807;80;22071;-68
2022/12/27 08:49:25;;;;;;;30.68;19.87;;;;;;;6.24;73.37;100208.24;1763130;80;21038;-68
2022/12/27 08:51:51;;;;;;;16.65;9.48;;;;;;;6.27;73.26;100204.95;1756848;80;21587;-68
2022/12/27 08:54:18;;;;;;;27.98;19.25;;;;;;;6.27;73.10;100205.41;1768226;80;21058;-68
2022/12/27 08:56:45;;;;;;;27.05;17.85;;;;;;;6.32;72.92;100205.94;1770255;80;21097;-76
2022/12/27 08:59:12;;;;;;;26.35;19.27;;;;;;;6.40;72.82;100208.89;1770781;79;21855;-69
2022/12/27 09:01:38;;;;;;;28.83;19.73;;;;;;;6.47;72.83;100203.66;1759793;80;21089;-69
2022/12/27 09:04:04;;;;;;;29.42;19.05;;;;;;;6.50;72.93;100205.22;1765694;80;21016;-69
2022/12/27 09:06:31;;;;;;;28.30;20.50;;;;;;;6.51;72.92;100199.89;1784370;77;21027;-70
2022/12/27 09:09:00;;;;;;;27.48;18.60;;;;;;;6.51;72.99;100198.58;1756057;79;20979;-75
2022/12/27 09:11:29;;;;;;;28.98;19.00;;;;;;;6.51;72.89;100188.60;1756672;79;21301;-71
2022/12/27 09:13:59;;;;;;;29.57;19.82;;;;;;;6.56;72.76;100189.61;1729835;79;21043;-71
2022/12/27 09:16:27;;;;;;;28.32;18.95;;;;;;;6.62;72.76;100182.65;1727793;82;21039;-73
2022/12/27 09:18:56;;;;;;;25.88;18.05;;;;;;;6.75;72.84;100177.45;1728724;80;21146;-72
2022/12/27 09:21:27;;;;;;;28.00;18.37;;;;;;;6.82;72.67;100178.22;1762750;80;21082;-68
2022/12/27 09:23:54;;;;;;;30.05;19.02;;;;;;;6.88;72.72;100179.60;1755985;79;21891;-69
2022/12/27 09:26:24;;;;;;;30.02;18.70;;;;;;;6.93;72.75;100168.83;1724896;81;21054;-68
2022/12/27 09:28:52;;;;;;;27.22;18.98;;;;;;;6.94;72.51;100171.31;1744506;79;21081;-69
2022/12/27 09:31:19;;;;;;;27.17;17.40;;;;;;;6.96;72.33;100170.77;1685680;81;21060;-69
2022/12/27 09:33:47;;;;;;;27.22;18.17;;;;;;;6.99;72.02;100174.94;1727120;80;21027;-68
2022/12/27 09:36:16;;;;;;;28.12;19.05;;;;;;;7.01;71.97;100179.13;1749538;80;21245;-69
2022/12/27 09:38:43;;;;;;;25.85;18.80;;;;;;;7.04;71.98;100170.22;1717334;81;21043;-69
2022/12/27 09:41:31;;;;;;;28.12;18.57;;;;;;;7.03;71.98;100171.19;1790031;77;21054;-67
2022/12/27 09:44:04;;;;;;;27.17;18.77;;;;;;;7.01;72.04;100174.34;1726154;81;21076;-67
2022/12/27 09:46:49;;;;;;;29.00;18.07;;;;;;;6.99;72.19;100163.16;1776144;77;21076;-68
2022/12/27 09:49:21;;;;;;;30.57;19.65;;;;;;;7.00;72.26;100165.67;1786476;79;21159;-67
2022/12/27 09:51:51;;;;;;;27.35;18.73;;;;;;;7.11;72.17;100163.64;1791347;77;21583;-67
2022/12/27 09:54:28;;;;;;;26.68;18.90;;;;;;;7.19;72.13;100160.00;1795858;77;21064;-68
2022/12/27 09:56:56;;;;;;;26.23;18.75;;;;;;;7.25;72.13;100157.45;1790837;78;21108;-66
2022/12/27 09:59:38;;;;;;;24.43;18.85;;;;;;;7.30;72.24;100169.73;1757442;80;21119;-67
2022/12/27 10:02:23;;;;;;;26.15;19.00;;;;;;;7.31;72.22;100158.78;1735724;80;21193;-67
2022/12/27 10:04:52;;;;;;;28.27;19.80;;;;;;;7.31;72.21;100161.41;1729207;81;21098;-67
2022/12/27 10:08:01;;;;;;;26.52;17.85;;;;;;;7.33;72.16;100159.06;1722286;80;21011;-67
2022/12/27 10:10:45;;;;;;;23.80;18.37;;;;;;;7.40;72.00;100158.16;1736205;80;21495;-66
2022/12/27 10:13:29;;;;;;;28.35;19.20;;;;;;;7.45;72.00;100158.67;1727401;80;21070;-66
2022/12/27 10:16:13;;;;;;;25.77;18.00;;;;;;;7.50;72.05;100163.11;1734416;81;21154;-67
2022/12/27 10:19:19;;;;;;;25.75;17.10;;;;;;;7.51;72.21;100154.77;1718203;80;21630;-66
2022/12/27 10:22:12;;;;;;;23.77;18.30;;;;;;;7.46;72.27;100156.39;1751065;80;21522;-67
2022/12/27 10:24:51;;;;;;;25.97;17.50;;;;;;;7.42;72.37;100154.95;1714559;82;21540;-67
2022/12/27 10:27:25;;;;;;;25.50;17.27;;;;;;;7.43;72.46;100156.16;1750306;80;21102;-68
2022/12/27 10:29:55;;;;;;;27.85;17.77;;;;;;;7.54;72.44;100157.17;1740598;80;21172;-66
2022/12/27 10:33:36;;;;;;;25.90;18.00;;;;;;;7.50;73.09;100153.94;1792464;77;22669;-66
2022/12/27 10:36:13;;;;;;;24.37;18.20;;;;;;;7.72;72.31;100157.66;1772410;80;21102;-66
2022/12/27 10:38:40;;;;;;;27.93;19.80;;;;;;;7.77;72.35;100156.84;1772314;80;21295;-66
2022/12/27 10:41:24;;;;;;;28.32;19.30;;;;;;;7.78;72.22;100150.64;1765739;80;22238;-66
2022/12/27 10:43:52;;;;;;;30.48;21.15;;;;;;;7.76;72.15;100155.16;1764638;80;20987;-66
2022/12/27 10:46:25;;;;;;;29.87;19.25;;;;;;;7.76;71.89;100164.33;1766829;80;21031;-66
2022/12/27 10:48:58;;;;;;;28.55;19.40;;;;;;;7.72;71.74;100161.10;1767985;80;21372;-66
2022/12/27 10:51:28;;;;;;;28.95;19.20;;;;;;;7.70;71.65;100152.97;1765857;80;21290;-65
2022/12/27 10:54:02;;;;;;;28.10;19.90;;;;;;;7.69;71.72;100159.17;1769532;80;21010;-66
2022/12/27 10:56:43;;;;;;;27.00;20.08;;;;;;;7.71;71.90;100155.48;1769011;80;20985;-66
2022/12/27 10:59:16;;;;;;;33.00;21.77;;;;;;;7.73;72.16;100149.69;1772961;80;22328;-66
2022/12/27 11:02:01;;;;;;;29.60;20.65;;;;;;;7.74;72.11;100154.45;1774911;80;21050;-66
2022/12/27 11:04:29;;;;;;;28.98;20.77;;;;;;;7.70;72.15;100142.50;1770294;80;22163;-66
2022/12/27 11:07:06;;;;;;;27.65;19.60;;;;;;;7.75;72.28;100148.23;1769951;80;21030;-66
2022/12/27 11:09:35;;;;;;;30.65;20.60;;;;;;;7.84;72.11;100148.08;1768404;80;21676;-66
2022/12/27 11:12:18;;;;;;;34.25;21.85;;;;;;;7.92;71.86;100147.88;1769028;80;21109;-66
2022/12/27 11:15:03;;;;;;;32.28;22.15;;;;;;;8.01;71.89;100148.98;1769431;80;21090;-65
2022/12/27 11:17:39;;;;;;;;;;;;;;;8.04;71.82;100150.56;1767768;80;21692;-66
2022/12/27 11:20:27;;;;;;;32.75;21.12;;;;;;;8.03;71.74;100154.11;1774824;80;20161;-65
2022/12/27 11:23:04;;;;;;;34.20;21.97;;;;;;;7.95;71.66;100152.90;1768763;80;21038;-65
2022/12/27 11:25:32;;;;;;;29.45;21.17;;;;;;;7.92;71.74;100137.39;1759953;80;21045;-65
2022/12/27 11:28:19;;;;;;;31.60;20.70;;;;;;;7.97;71.69;100130.03;1742551;80;21114;-65
2022/12/27 11:30:59;;;;;;;31.23;21.68;;;;;;;8.04;71.72;100121.25;1725558;80;21982;-65
2022/12/27 11:33:43;;;;;;;34.30;22.07;;;;;;;8.09;71.58;100125.67;1760782;80;21119;-65
2022/12/27 11:36:12;;;;;;;29.37;21.68;;;;;;;8.10;71.73;100114.70;1690408;82;21060;-66
2022/12/27 11:38:41;;;;;;;28.38;21.75;;;;;;;8.09;71.78;100119.61;1759734;80;21064;-66
2022/12/27 11:41:21;;;;;;;29.37;21.87;;;;;;;8.07;71.76;100122.34;1767247;80;22205;-66
2022/12/27 11:43:57;;;;;;;32.55;21.52;;;;;;;8.08;71.68;100119.23;1686140;83;21164;-66
2022/12/27 11:46:58;;;;;;;31.63;21.10;;;;;;;8.10;71.58;100122.12;1750846;80;21094;-66
2022/12/27 11:49:46;;;;;;;31.95;22.17;;;;;;;8.15;71.54;100117.38;1763146;80;21072;-66
2022/12/27 11:52:21;;;;;;;28.40;20.25;;;;;;;8.16;71.57;100122.95;1747816;80;21119;-66
2022/12/27 11:54:59;;;;;;;33.75;21.93;;;;;;;8.10;71.74;100118.19;1755528;80;21578;-66
2022/12/27 11:57:43;;;;;;;33.53;21.82;;;;;;;8.04;71.86;100116.50;1754487;80;21151;-66
2022/12/27 12:00:30;;;;;;;31.55;21.17;;;;;;;7.96;72.06;100124.91;1754317;80;21067;-65
2022/12/27 12:03:28;;;;;;;30.82;20.45;;;;;;;7.93;72.11;100123.81;1757748;80;21511;-65
2022/12/27 12:06:21;;;;;;;35.05;21.27;;;;;;;7.96;72.16;100125.73;1750185;80;21040;-66
2022/12/27 12:09:08;;;;;;;32.88;21.55;;;;;;;7.98;72.12;100119.07;1758524;80;21011;-65
2022/12/27 12:12:05;;;;;;;35.13;20.95;;;;;;;7.89;72.25;100111.41;1750316;80;21255;-66
2022/12/27 12:14:56;;;;;;;37.95;22.37;;;;;;;7.84;72.55;100121.40;1756220;80;21571;-66
2022/12/27 12:18:03;;;;;;;32.45;21.77;;;;;;;7.76;72.78;100122.42;1754559;80;20996;-65
2022/12/27 12:20:42;;;;;;;;;;;;;;;7.74;72.89;100112.54;1756679;80;21109;-66
2022/12/27 12:23:31;;;;;;;32.40;20.27;;;;;;;7.83;72.91;100112.34;1754080;80;20283;-66
2022/12/27 12:26:22;;;;;;;32.28;22.58;;;;;;;7.88;72.83;100112.35;1754846;80;21358;-66
2022/12/27 12:29:03;;;;;;;35.80;22.90;;;;;;;7.91;72.88;100114.75;1713030;82;21007;-66
2022/12/27 12:31:51;;;;;;;34.05;24.02;;;;;;;7.91;73.10;100107.38;1760569;80;21027;-66
2022/12/27 12:34:57;;;;;;;38.40;24.57;;;;;;;7.92;73.13;100105.95;1762197;80;20880;-66
2022/12/27 12:37:50;;;;;;;39.15;26.17;;;;;;;7.93;73.16;100118.58;1751126;80;20912;-66
2022/12/27 12:40:47;;;;;;;36.50;24.23;;;;;;;7.96;72.89;100122.28;1761959;80;21264;-66
2022/12/27 12:43:45;;;;;;;35.13;23.38;;;;;;;7.99;72.72;100111.59;1756183;80;21104;-66
2022/12/27 12:46:44;;;;;;;36.28;25.37;;;;;;;8.08;72.76;100104.83;1756095;80;21126;-66
2022/12/27 12:49:46;;;;;;;33.67;22.42;;;;;;;8.17;72.89;100100.22;1760861;80;21063;-66
2022/12/27 12:52:39;;;;;;;31.30;21.65;;;;;;;8.25;72.93;100107.50;1754156;80;21002;-66
2022/12/27 12:55:34;;;;;;;31.60;22.50;;;;;;;8.25;72.63;100111.42;1760106;80;21326;-66
2022/12/27 12:58:23;;;;;;;34.60;21.55;;;;;;;8.21;72.54;100106.89;1756247;80;21047;-66
2022/12/27 13:01:13;;;;;;;31.62;20.95;;;;;;;8.21;72.36;100116.06;1756694;80;21062;-66
2022/12/27 13:04:00;;;;;;;35.00;21.40;;;;;;;8.25;72.18;100117.98;1758203;80;21074;-66
2022/12/27 13:06:52;;;;;;;34.40;22.75;;;;;;;8.26;72.13;100117.88;1750280;80;21059;-66
2022/12/27 13:10:15;;;;;;;35.73;22.27;;;;;;;8.23;72.16;100112.85;1670502;83;21297;-66
2022/12/27 13:12:59;;;;;;;34.78;22.40;;;;;;;8.22;72.37;100112.51;1749511;80;21592;-66
2022/12/27 13:27:45;;;;;;;32.35;19.52;;;;;;;8.00;72.72;100128.50;1651475;86;21876;-66
2022/12/27 13:30:26;;;;;;;34.67;23.33;;;;;;;7.92;72.99;100127.40;1657373;84;21086;-66
2022/12/27 13:33:21;;;;;;;33.85;22.50;;;;;;;7.80;73.31;100129.09;1650710;85;21788;-66
2022/12/27 13:36:06;;;;;;;35.03;23.12;;;;;;;7.73;73.67;100131.81;1620181;86;21139;-66
2022/12/27 13:39:02;;;;;;;32.75;22.05;;;;;;;7.68;73.80;100132.13;1651193;85;21126;-66
2022/12/27 13:41:33;;;;;;;;;;;;;;;7.71;73.83;100139.77;1653592;84;21942;-65
2022/12/27 13:44:43;;;;;;;29.75;20.72;;;;;;;7.74;73.92;100132.18;1648299;84;20212;-65
2022/12/27 13:47:49;;;;;;;33.28;23.10;;;;;;;7.75;74.07;100138.63;1646740;86;21067;-66
2022/12/27 13:50:53;;;;;;;34.45;22.67;;;;;;;7.77;74.11;100140.65;1651398;84;21491;-66